Middlebury, Vermont
Current Conditions -  °F | °C
As of 8:15 AM on Tuesday 21 Oct 2014 (Local Time) from K6B0 Reporting Station
Light Rain Light Rain  
Wind Chill: 43°   Ceiling: 6500
Heat Index: 46°   Visibility: 10mi
Dew Point: 46°   Wind: 5mph
Humidity: 100%   Direction: 360°N
Pressure: 29.94"   Gusts: NA
Location:  44.02°N, 73.17°W
Report Text: K6B0 211215Z AUTO 36004KT 10SM -RA BKN065 OVC075 08/08 A2994 RMK AO2 T00750075
Loading
Personal Weather Stations






























Interactive Weather Map
Tropical Storm Tracking
New forecast layout! Learn more

10-Day Weather Forecast

Advertisements
Track Severe Weather on mobile